createdAt,value
2022-08-09T00:00:33.935Z,19.27
2022-08-09T00:01:54.304Z,19.24
2022-08-09T00:02:34.545Z,19.33
2022-08-09T00:04:06.192Z,19.30
2022-08-09T00:04:35.385Z,19.22
2022-08-09T00:06:15.884Z,19.24
2022-08-09T00:06:33.943Z,19.21
2022-08-09T00:07:44.440Z,19.37
2022-08-09T00:08:33.949Z,19.21
2022-08-09T00:09:33.951Z,19.22
2022-08-09T00:10:33.947Z,19.26
2022-08-09T00:12:02.757Z,19.21
2022-08-09T00:12:34.560Z,19.21
2022-08-09T00:13:33.953Z,19.15
2022-08-09T00:14:38.245Z,19.29
2022-08-09T00:15:57.932Z,19.31
2022-08-09T00:16:38.258Z,19.30
2022-08-09T00:18:05.315Z,19.29
2022-08-09T00:18:34.904Z,19.26
2022-08-09T00:19:34.250Z,19.18
2022-08-09T00:20:34.237Z,19.21
2022-08-09T00:21:33.969Z,19.18
2022-08-09T00:22:35.307Z,19.19
2022-08-09T00:23:56.505Z,19.26
2022-08-09T00:24:33.974Z,19.26
2022-08-09T00:25:34.421Z,19.22
2022-08-09T00:26:33.973Z,19.26
2022-08-09T00:27:36.244Z,19.26
2022-08-09T00:28:34.642Z,19.19
2022-08-09T00:30:10.159Z,19.19
2022-08-09T00:30:33.977Z,19.14
2022-08-09T00:31:59.150Z,19.22
2022-08-09T00:32:33.981Z,19.19
2022-08-09T00:33:48.957Z,19.16
2022-08-09T00:34:33.984Z,19.16
2022-08-09T00:35:42.842Z,19.16
2022-08-09T00:36:33.986Z,19.16
2022-08-09T00:37:33.990Z,19.15
2022-08-09T00:38:33.988Z,19.12
2022-08-09T00:40:09.028Z,19.08
2022-08-09T00:40:34.037Z,19.11
2022-08-09T00:44:10.714Z,18.99
2022-08-09T00:44:11.527Z,18.96
2022-08-09T00:44:16.792Z,19.11
2022-08-09T00:44:34.468Z,19.07
2022-08-09T00:45:34.771Z,19.00
2022-08-09T00:46:55.414Z,19.00
2022-08-09T00:47:35.972Z,19.08
2022-08-09T00:48:34.003Z,19.07
2022-08-09T00:49:34.008Z,19.00
2022-08-09T00:50:34.010Z,18.92
2022-08-09T00:51:54.566Z,19.00
2022-08-09T00:52:34.412Z,18.98
2022-08-09T00:53:34.015Z,18.96
2022-08-09T00:54:36.353Z,19.04
2022-08-09T00:56:04.604Z,18.92
2022-08-09T00:56:34.015Z,18.96
2022-08-09T00:57:35.826Z,18.95
2022-08-09T00:58:34.021Z,19.04
2022-08-09T00:59:41.457Z,19.02
2022-08-09T01:00:35.177Z,19.00
2022-08-09T01:01:44.590Z,19.02
2022-08-09T01:02:34.276Z,19.07
2022-08-09T01:03:34.036Z,18.99
2022-08-09T01:04:34.026Z,18.99
2022-08-09T01:05:51.746Z,18.92
2022-08-09T01:06:53.269Z,18.96
2022-08-09T01:07:37.953Z,18.99
2022-08-09T01:08:34.035Z,18.93
2022-08-09T01:09:36.493Z,18.95
2022-08-09T01:10:34.038Z,18.90
2022-08-09T01:11:34.038Z,18.89
2022-08-09T01:12:34.268Z,18.89
2022-08-09T01:13:41.738Z,18.92
2022-08-09T01:14:34.041Z,18.92
2022-08-09T01:15:34.045Z,18.89
2022-08-09T01:16:35.117Z,18.84
2022-08-09T01:17:34.423Z,18.83
2022-08-09T01:18:34.050Z,18.77
2022-08-09T01:19:42.565Z,18.83
2022-08-09T01:20:34.052Z,18.81
2022-08-09T01:21:40.952Z,18.83
2022-08-09T01:22:34.474Z,18.86
2022-08-09T01:24:02.558Z,18.77
2022-08-09T01:24:34.056Z,18.84
2022-08-09T01:25:41.614Z,18.86
2022-08-09T01:26:34.060Z,18.88
2022-08-09T01:27:34.061Z,18.77
2022-08-09T01:28:34.063Z,18.81
2022-08-09T01:29:40.929Z,18.75
2022-08-09T01:30:51.959Z,18.77
2022-08-09T01:32:31.397Z,18.81
2022-08-09T01:32:34.602Z,18.80
2022-08-09T01:33:34.071Z,18.77
2022-08-09T01:34:34.070Z,18.78
2022-08-09T01:35:38.274Z,18.81
2022-08-09T01:36:34.073Z,18.80
2022-08-09T01:38:05.661Z,18.78
2022-08-09T01:38:34.074Z,18.77
2022-08-09T01:39:34.131Z,18.74
2022-08-09T01:40:34.078Z,18.70
2022-08-09T01:41:34.082Z,18.75
2022-08-09T01:42:34.231Z,18.71
2022-08-09T01:43:42.203Z,18.74
2022-08-09T01:44:34.119Z,18.68
2022-08-09T01:45:34.088Z,18.74
2022-08-09T01:46:34.086Z,18.74
2022-08-09T01:47:34.091Z,18.77
2022-08-09T01:48:34.090Z,18.63
2022-08-09T01:49:38.912Z,18.70
2022-08-09T01:50:37.256Z,18.62
2022-08-09T01:51:34.097Z,18.62
2022-08-09T01:52:34.096Z,18.65
2022-08-09T01:53:41.638Z,18.58
2022-08-09T01:54:34.097Z,18.56
2022-08-09T01:55:34.097Z,18.56
2022-08-09T01:56:34.101Z,18.59
2022-08-09T01:57:40.109Z,18.58
2022-08-09T01:58:34.102Z,18.55
2022-08-09T01:59:40.959Z,18.59
2022-08-09T02:00:34.733Z,18.58
2022-08-09T02:01:59.279Z,18.58
2022-08-09T02:02:34.349Z,18.55
2022-08-09T02:03:34.109Z,18.49
2022-08-09T02:04:34.113Z,18.58
2022-08-09T02:05:37.626Z,18.47
2022-08-09T02:06:34.116Z,18.55
2022-08-09T02:08:35.615Z,18.50
2022-08-09T02:08:39.539Z,18.55
2022-08-09T02:09:41.827Z,18.49
2022-08-09T02:10:34.118Z,18.45
2022-08-09T02:11:42.153Z,18.45
2022-08-09T02:12:34.324Z,18.50
2022-08-09T02:13:37.216Z,18.49
2022-08-09T02:14:34.127Z,18.47
2022-08-09T02:15:36.321Z,18.43
2022-08-09T02:16:52.781Z,18.43
2022-08-09T02:18:00.251Z,18.38
2022-08-09T02:18:34.132Z,18.44
2022-08-09T02:19:38.777Z,18.31
2022-08-09T02:20:34.369Z,18.26
2022-08-09T02:21:34.245Z,18.22
2022-08-09T02:22:34.907Z,18.15
2022-08-09T02:23:39.784Z,18.10
2022-08-09T02:24:34.136Z,18.11
2022-08-09T02:25:42.544Z,18.10
2022-08-09T02:26:34.140Z,18.03
2022-08-09T02:27:57.396Z,18.01
2022-08-09T02:28:34.146Z,18.07
2022-08-09T02:29:34.161Z,17.94
2022-08-09T02:30:34.494Z,18.10
2022-08-09T02:31:36.363Z,17.95
2022-08-09T02:32:34.270Z,17.89
2022-08-09T02:33:38.314Z,18.01
2022-08-09T02:34:40.273Z,17.95
2022-08-09T02:36:02.902Z,18.08
2022-08-09T02:36:34.154Z,18.05
2022-08-09T02:37:36.669Z,17.97
2022-08-09T02:38:34.865Z,17.92
2022-08-09T02:39:42.144Z,17.90
2022-08-09T02:40:34.229Z,18.03
2022-08-09T02:41:34.173Z,17.94
2022-08-09T02:42:34.445Z,17.94
2022-08-09T02:43:42.649Z,18.03
2022-08-09T02:44:34.160Z,17.98
2022-08-09T02:45:34.159Z,18.03
2022-08-09T02:46:34.165Z,17.89
2022-08-09T02:47:58.121Z,17.97
2022-08-09T02:48:34.164Z,17.95
2022-08-09T02:49:40.996Z,17.95
2022-08-09T02:50:34.169Z,18.10
2022-08-09T02:51:39.966Z,18.01
2022-08-09T02:52:35.284Z,18.11
2022-08-09T02:53:34.289Z,18.05
2022-08-09T02:54:34.171Z,18.00
2022-08-09T02:55:53.572Z,18.00
2022-08-09T02:56:34.172Z,17.97
2022-08-09T02:57:40.495Z,17.95
2022-08-09T02:58:36.737Z,17.92
2022-08-09T02:59:36.320Z,17.92
2022-08-09T03:00:34.252Z,17.98
2022-08-09T03:01:43.132Z,17.95
2022-08-09T03:02:34.568Z,17.98
2022-08-09T03:04:12.350Z,18.00
2022-08-09T03:04:34.180Z,18.00
2022-08-09T03:05:34.932Z,17.92
2022-08-09T03:06:34.179Z,17.97
2022-08-09T03:07:34.185Z,17.94
2022-08-09T03:08:34.188Z,17.85
2022-08-09T03:09:34.183Z,17.83
2022-08-09T03:10:34.188Z,17.87
2022-08-09T03:12:05.837Z,17.87
2022-08-09T03:12:34.535Z,17.94
2022-08-09T03:13:43.789Z,17.90
2022-08-09T03:14:34.194Z,17.90
2022-08-09T03:16:04.131Z,17.97
2022-08-09T03:16:37.385Z,17.98
2022-08-09T03:17:34.194Z,18.00
2022-08-09T03:18:34.192Z,17.94
2022-08-09T03:19:52.236Z,17.98
2022-08-09T03:20:34.198Z,17.94
2022-08-09T03:21:39.495Z,17.94
2022-08-09T03:22:41.335Z,18.00
2022-08-09T03:23:34.198Z,17.95
2022-08-09T03:24:42.475Z,17.95
2022-08-09T03:25:59.259Z,18.00
2022-08-09T03:26:34.203Z,17.97
2022-08-09T03:27:37.439Z,18.05
2022-08-09T03:28:34.203Z,17.98
2022-08-09T03:29:35.583Z,18.01
2022-08-09T03:30:36.855Z,18.05
2022-08-09T03:31:34.210Z,18.00
2022-08-09T03:32:37.182Z,17.97
2022-08-09T03:33:54.481Z,18.07
2022-08-09T03:34:34.210Z,18.00
2022-08-09T03:35:44.416Z,18.05
2022-08-09T03:36:34.213Z,18.01
2022-08-09T03:37:56.518Z,18.05
2022-08-09T03:38:34.214Z,17.95
2022-08-09T03:39:37.902Z,17.98
2022-08-09T03:40:34.217Z,18.03
2022-08-09T03:41:45.968Z,18.01
2022-08-09T03:42:34.394Z,17.95
2022-08-09T03:43:34.216Z,17.95
2022-08-09T03:44:34.223Z,18.00
2022-08-09T03:46:05.127Z,17.98
2022-08-09T03:46:34.254Z,18.00
2022-08-09T03:47:36.497Z,17.98
2022-08-09T03:48:34.225Z,17.95
2022-08-09T03:49:35.783Z,17.95
2022-08-09T03:50:34.227Z,17.95
2022-08-09T03:51:57.431Z,18.05
2022-08-09T03:52:34.453Z,17.98
2022-08-09T03:53:36.982Z,17.97
2022-08-09T03:54:34.365Z,17.97
2022-08-09T03:55:36.268Z,18.01
2022-08-09T03:56:34.231Z,18.01
2022-08-09T03:57:34.233Z,18.01
2022-08-09T03:58:34.238Z,17.89
2022-08-09T03:59:52.954Z,17.89
2022-08-09T04:00:34.260Z,17.86
2022-08-09T04:01:34.238Z,17.86
2022-08-09T04:02:34.417Z,17.80
2022-08-09T04:03:46.390Z,17.83
2022-08-09T04:04:38.698Z,17.86
2022-08-09T04:05:40.383Z,17.74
2022-08-09T04:06:34.246Z,17.80
2022-08-09T04:07:53.028Z,17.80
2022-08-09T04:08:34.249Z,17.76
2022-08-09T04:09:42.102Z,17.74
2022-08-09T04:10:34.249Z,17.78
2022-08-09T04:11:34.249Z,17.76
2022-08-09T04:12:34.249Z,17.72
2022-08-09T04:14:37.214Z,17.82
2022-08-09T04:14:54.056Z,17.78
2022-08-09T04:15:52.310Z,17.82
2022-08-09T04:16:34.253Z,17.79
2022-08-09T04:17:34.257Z,17.78
2022-08-09T04:18:34.255Z,17.87
2022-08-09T04:19:42.719Z,17.79
2022-08-09T04:20:34.259Z,17.87
2022-08-09T04:21:38.490Z,17.83
2022-08-09T04:22:34.356Z,17.95
2022-08-09T04:23:34.256Z,17.87
2022-08-09T04:24:34.258Z,17.94
2022-08-09T04:25:34.259Z,17.90
2022-08-09T04:26:37.906Z,17.89
2022-08-09T04:27:34.260Z,17.92
2022-08-09T04:28:36.618Z,18.05
2022-08-09T04:29:34.264Z,17.95
2022-08-09T04:30:34.263Z,17.97
2022-08-09T04:31:37.698Z,17.95
2022-08-09T04:32:37.258Z,17.94
2022-08-09T04:33:34.265Z,17.95
2022-08-09T04:34:34.269Z,17.95
2022-08-09T04:35:34.269Z,17.98
2022-08-09T04:36:34.275Z,17.92
2022-08-09T04:37:45.392Z,17.90
2022-08-09T04:38:34.346Z,17.89
2022-08-09T04:39:34.306Z,17.87
2022-08-09T04:40:36.572Z,17.87
2022-08-09T04:41:43.399Z,17.94
2022-08-09T04:42:35.659Z,17.95
2022-08-09T04:43:35.809Z,18.04
2022-08-09T04:44:34.278Z,17.92
2022-08-09T04:45:35.820Z,17.95
2022-08-09T04:46:56.911Z,17.95
2022-08-09T04:47:59.314Z,17.90
2022-08-09T04:48:34.283Z,17.92
2022-08-09T04:49:54.816Z,17.98
2022-08-09T04:50:34.887Z,17.95
2022-08-09T04:51:34.286Z,17.94
2022-08-09T04:52:34.479Z,17.97
2022-08-09T04:53:34.289Z,17.98
2022-08-09T04:54:34.289Z,17.98
2022-08-09T04:55:38.979Z,17.98
2022-08-09T04:56:34.290Z,18.00
2022-08-09T04:57:53.732Z,18.05
2022-08-09T04:58:34.323Z,17.97
2022-08-09T04:59:34.298Z,18.08
2022-08-09T05:00:34.512Z,18.11
2022-08-09T05:01:34.304Z,18.11
2022-08-09T05:02:34.601Z,17.98
2022-08-09T05:03:43.543Z,18.08
2022-08-09T05:04:34.345Z,18.10
2022-08-09T05:05:51.768Z,18.03
2022-08-09T05:06:35.958Z,18.08
2022-08-09T05:07:34.300Z,18.01
2022-08-09T05:08:34.311Z,17.94
2022-08-09T05:09:45.427Z,18.07
2022-08-09T05:10:34.307Z,18.01
2022-08-09T05:11:35.973Z,18.07
2022-08-09T05:12:34.523Z,18.03
2022-08-09T05:13:34.312Z,18.08
2022-08-09T05:14:34.308Z,18.05
2022-08-09T05:15:38.604Z,18.00
2022-08-09T05:16:34.324Z,17.95
2022-08-09T05:18:38.170Z,17.97
2022-08-09T05:18:42.486Z,17.90
2022-08-09T05:19:45.976Z,17.83
2022-08-09T05:20:34.324Z,17.85
2022-08-09T05:21:46.442Z,17.83
2022-08-09T05:23:51.121Z,17.86
2022-08-09T05:23:58.227Z,17.85
2022-08-09T05:24:34.320Z,17.79
2022-08-09T05:25:34.325Z,17.80
2022-08-09T05:26:36.862Z,17.82
2022-08-09T05:27:34.322Z,17.78
2022-08-09T05:28:34.327Z,17.76
2022-08-09T05:29:35.671Z,17.78
2022-08-09T05:30:34.331Z,17.74
2022-08-09T05:31:44.479Z,17.79
2022-08-09T05:32:34.546Z,17.78
2022-08-09T05:33:34.331Z,17.76
2022-08-09T05:34:34.335Z,17.72
2022-08-09T05:35:46.688Z,17.76
2022-08-09T05:36:34.332Z,17.71
2022-08-09T05:37:47.763Z,17.71
2022-08-09T05:38:34.337Z,17.76
2022-08-09T05:39:36.216Z,17.74
2022-08-09T05:40:34.345Z,17.74
2022-08-09T05:41:34.338Z,17.80
2022-08-09T05:42:34.654Z,17.85
2022-08-09T05:43:34.343Z,17.85
2022-08-09T05:44:34.558Z,17.79
2022-08-09T05:45:52.982Z,17.83
2022-08-09T05:46:34.344Z,17.85
2022-08-09T05:47:34.347Z,17.83
2022-08-09T05:48:34.350Z,17.83
2022-08-09T05:50:23.401Z,17.90
2022-08-09T05:50:39.989Z,17.92
2022-08-09T05:51:46.145Z,17.94
2022-08-09T05:52:34.654Z,17.87
2022-08-09T05:53:37.234Z,17.85
2022-08-09T05:54:34.352Z,17.89
2022-08-09T05:55:34.354Z,17.89
2022-08-09T05:56:34.353Z,17.86
2022-08-09T05:57:56.172Z,17.86
2022-08-09T05:58:34.359Z,17.94
2022-08-09T05:59:34.354Z,17.98
2022-08-09T06:00:34.374Z,17.95
2022-08-09T06:01:42.365Z,17.89
2022-08-09T06:02:34.769Z,18.00
2022-08-09T06:03:34.749Z,17.98
2022-08-09T06:04:35.087Z,17.98
2022-08-09T06:05:54.625Z,17.97
2022-08-09T06:06:34.361Z,17.98
2022-08-09T06:07:34.372Z,18.00
2022-08-09T06:08:34.368Z,18.00
2022-08-09T06:09:53.963Z,18.07
2022-08-09T06:10:34.366Z,18.00
2022-08-09T06:11:40.859Z,18.07
2022-08-09T06:12:34.561Z,18.03
2022-08-09T06:13:34.384Z,18.08
2022-08-09T06:14:34.374Z,18.08
2022-08-09T06:15:34.371Z,18.10
2022-08-09T06:16:34.370Z,18.13
2022-08-09T06:17:39.165Z,18.13
2022-08-09T06:18:34.372Z,18.16
2022-08-09T06:19:34.373Z,18.16
2022-08-09T06:20:34.374Z,18.31
2022-08-09T06:21:34.381Z,18.31
2022-08-09T06:22:34.620Z,18.34
2022-08-09T06:23:57.627Z,18.34
2022-08-09T06:24:34.379Z,18.37
2022-08-09T06:25:34.567Z,18.38
2022-08-09T06:26:34.379Z,18.40
2022-08-09T06:27:41.327Z,18.41
2022-08-09T06:28:34.382Z,18.43
2022-08-09T06:29:34.386Z,18.45
2022-08-09T06:30:34.380Z,18.49
2022-08-09T06:31:40.095Z,18.58
2022-08-09T06:33:13.560Z,18.56
2022-08-09T06:33:41.465Z,18.52
2022-08-09T06:34:34.392Z,18.58
2022-08-09T06:35:35.846Z,18.65
2022-08-09T06:36:34.393Z,18.65
2022-08-09T06:37:52.871Z,18.73
2022-08-09T06:38:37.739Z,18.74
2022-08-09T06:39:48.248Z,18.73
2022-08-09T06:40:34.439Z,18.81
2022-08-09T06:42:08.076Z,18.84
2022-08-09T06:42:34.618Z,18.90
2022-08-09T06:43:34.577Z,18.96
2022-08-09T06:44:34.395Z,18.98
2022-08-09T06:46:07.168Z,18.96
2022-08-09T06:46:40.248Z,19.09
2022-08-09T06:47:39.713Z,19.02
2022-08-09T06:48:34.399Z,19.07
2022-08-09T06:50:11.311Z,19.00
2022-08-09T06:50:34.399Z,19.08
2022-08-09T06:51:39.857Z,19.11
2022-08-09T06:52:34.548Z,19.16
2022-08-09T06:53:38.440Z,19.14
2022-08-09T06:54:34.404Z,19.24
2022-08-09T06:55:34.408Z,19.26
2022-08-09T06:56:34.407Z,19.26
2022-08-09T06:58:02.020Z,19.34
2022-08-09T07:00:49.403Z,19.37
2022-08-09T07:00:51.714Z,19.31
2022-08-09T07:00:57.273Z,19.44
2022-08-09T07:01:53.532Z,19.45
2022-08-09T07:02:34.756Z,19.45
2022-08-09T07:03:39.565Z,19.45
2022-08-09T07:04:34.416Z,19.39
2022-08-09T07:06:02.192Z,19.49
2022-08-09T07:06:34.498Z,19.51
2022-08-09T07:07:59.996Z,19.56
2022-08-09T07:08:34.434Z,19.55
2022-08-09T07:09:54.553Z,19.55
2022-08-09T07:10:34.425Z,19.58
2022-08-09T07:11:51.966Z,19.66
2022-08-09T07:12:38.598Z,19.66
2022-08-09T07:13:45.217Z,19.69
2022-08-09T07:14:34.429Z,19.74
2022-08-09T07:16:38.829Z,19.77
2022-08-09T07:16:43.303Z,19.77
2022-08-09T07:17:39.833Z,19.73
2022-08-09T07:18:34.446Z,19.76
2022-08-09T07:19:34.443Z,19.77
2022-08-09T07:20:34.443Z,19.82
2022-08-09T07:21:34.443Z,19.86
2022-08-09T07:22:36.262Z,19.91
2022-08-09T07:23:36.250Z,20.03
2022-08-09T07:24:40.313Z,19.95
2022-08-09T07:25:38.909Z,19.99
2022-08-09T07:26:34.446Z,20.11
2022-08-09T07:27:42.987Z,20.04
2022-08-09T07:28:34.665Z,20.06
2022-08-09T07:29:38.075Z,20.21
2022-08-09T07:30:34.450Z,20.18
2022-08-09T07:31:38.226Z,20.25
2022-08-09T07:32:34.985Z,20.26
2022-08-09T07:33:52.831Z,20.29
2022-08-09T07:34:34.454Z,20.32
2022-08-09T07:35:53.191Z,20.36
2022-08-09T07:36:34.461Z,20.39
2022-08-09T07:37:43.850Z,20.43
2022-08-09T07:38:34.461Z,20.41
2022-08-09T07:39:41.173Z,20.55
2022-08-09T07:41:00.461Z,20.58
2022-08-09T07:41:38.929Z,20.56
2022-08-09T07:42:34.554Z,20.63
2022-08-09T07:43:41.198Z,20.60
2022-08-09T07:44:51.210Z,20.66
2022-08-09T07:45:39.354Z,20.72
2022-08-09T07:46:34.473Z,20.74
2022-08-09T07:47:49.597Z,20.80
2022-08-09T07:48:34.481Z,20.84
2022-08-09T07:49:34.488Z,20.88
2022-08-09T07:50:36.556Z,20.92
2022-08-09T07:52:05.548Z,21.00
2022-08-09T07:52:35.653Z,20.97
2022-08-09T07:54:01.659Z,21.09
2022-08-09T07:54:34.488Z,21.09
2022-08-09T07:55:41.670Z,21.18
2022-08-09T07:56:34.499Z,21.18
2022-08-09T07:57:35.881Z,21.20
2022-08-09T07:58:34.495Z,21.32
2022-08-09T07:59:52.167Z,21.32
2022-08-09T08:00:36.193Z,21.35
2022-08-09T08:01:34.638Z,21.37
2022-08-09T08:02:34.882Z,21.52
2022-08-09T08:03:36.935Z,21.50
2022-08-09T08:04:34.507Z,21.48
2022-08-09T08:05:54.346Z,21.57
2022-08-09T08:06:35.198Z,21.57
2022-08-09T08:08:44.386Z,21.55
2022-08-09T08:09:00.089Z,21.61
2022-08-09T08:09:42.985Z,21.60
2022-08-09T08:10:34.774Z,21.72
2022-08-09T08:12:23.870Z,21.64
2022-08-09T08:12:34.601Z,21.73
2022-08-09T08:13:44.993Z,21.75
2022-08-09T08:14:34.527Z,21.79
2022-08-09T08:15:35.565Z,21.92
2022-08-09T08:16:34.768Z,22.00
2022-08-09T08:17:51.875Z,22.04
2022-08-09T08:18:34.538Z,22.04
2022-08-09T08:19:34.544Z,22.08
2022-08-09T08:20:34.546Z,22.20
2022-08-09T08:21:34.549Z,22.20
2022-08-09T08:22:34.701Z,22.29
2022-08-09T08:23:34.977Z,22.35
2022-08-09T08:24:40.653Z,22.32
2022-08-09T08:25:43.968Z,22.50
2022-08-09T08:26:55.042Z,22.41
2022-08-09T08:27:40.594Z,22.45
2022-08-09T08:28:35.059Z,22.54
2022-08-09T08:29:39.580Z,22.57
2022-08-09T08:30:34.577Z,22.68
2022-08-09T08:32:02.434Z,22.72
2022-08-09T08:32:34.599Z,22.68
2022-08-09T08:33:40.621Z,22.78
2022-08-09T08:34:36.291Z,22.88
2022-08-09T08:35:53.088Z,22.85
2022-08-09T08:36:34.607Z,23.02
2022-08-09T08:37:42.007Z,23.09
2022-08-09T08:38:34.618Z,23.15
2022-08-09T08:39:43.419Z,23.15
2022-08-09T08:40:34.630Z,23.21
2022-08-09T08:41:50.653Z,23.25
2022-08-09T08:42:34.756Z,23.31
2022-08-09T08:43:34.650Z,23.48
2022-08-09T08:44:34.658Z,23.54
2022-08-09T08:45:37.066Z,23.66
2022-08-09T08:46:41.418Z,23.81
2022-08-09T08:47:34.682Z,23.78
2022-08-09T08:48:34.682Z,23.92
2022-08-09T08:49:46.418Z,23.92
2022-08-09T08:50:34.697Z,23.91
2022-08-09T08:51:41.614Z,24.02
2022-08-09T08:52:57.768Z,23.98
2022-08-09T08:53:37.252Z,24.05
2022-08-09T08:54:34.724Z,24.03
2022-08-09T08:55:34.733Z,24.02
2022-08-09T08:56:35.231Z,24.26
2022-08-09T08:57:35.944Z,24.36
2022-08-09T08:58:36.088Z,24.33
2022-08-09T08:59:46.465Z,24.36
2022-08-09T09:00:35.046Z,24.33
2022-08-09T09:01:44.679Z,24.36
2022-08-09T09:02:35.210Z,24.32
2022-08-09T09:03:37.869Z,24.29
2022-08-09T09:04:47.435Z,24.17
2022-08-09T09:05:58.238Z,24.08
2022-08-09T09:06:34.804Z,24.11
2022-08-09T09:07:36.853Z,23.99
2022-08-09T09:08:38.143Z,23.91
2022-08-09T09:09:58.728Z,23.91
2022-08-09T09:10:34.824Z,23.69
2022-08-09T09:11:38.638Z,23.63
2022-08-09T09:12:35.783Z,23.63
2022-08-09T09:13:50.250Z,23.61
2022-08-09T09:14:34.843Z,23.62
2022-08-09T09:15:34.850Z,23.47
2022-08-09T09:16:35.781Z,23.44
2022-08-09T09:17:49.021Z,23.31
2022-08-09T09:18:34.857Z,23.31
2022-08-09T09:19:41.294Z,23.27
2022-08-09T09:20:34.871Z,23.31
2022-08-09T09:21:43.368Z,23.23
2022-08-09T09:22:35.235Z,23.20
2022-08-09T09:23:34.887Z,23.31
2022-08-09T09:24:34.928Z,23.23
2022-08-09T09:26:01.809Z,23.13
2022-08-09T09:26:34.897Z,23.17
2022-08-09T09:28:06.959Z,23.23
2022-08-09T09:29:01.833Z,23.17
2022-08-09T09:29:58.082Z,23.08
2022-08-09T09:30:42.039Z,23.02
2022-08-09T09:32:03.726Z,23.00
2022-08-09T09:32:35.681Z,22.98
2022-08-09T09:33:44.856Z,23.09
2022-08-09T09:34:34.924Z,23.06
2022-08-09T09:35:34.925Z,23.13
2022-08-09T09:36:34.925Z,23.15
2022-08-09T09:37:34.930Z,23.12
2022-08-09T09:38:36.539Z,23.10
2022-08-09T09:39:50.238Z,23.12
2022-08-09T09:40:34.994Z,23.12
2022-08-09T09:41:48.646Z,23.09
2022-08-09T09:42:35.279Z,23.08
2022-08-09T09:44:10.322Z,23.09
2022-08-09T09:44:34.950Z,23.12
2022-08-09T09:45:56.893Z,23.05
2022-08-09T09:46:46.104Z,22.99
2022-08-09T09:47:37.978Z,23.05
2022-08-09T09:48:34.966Z,22.96
2022-08-09T09:50:07.025Z,22.98
2022-08-09T09:50:34.987Z,23.02
2022-08-09T09:51:38.352Z,22.98
2022-08-09T09:52:37.235Z,22.98
2022-08-09T09:53:57.269Z,23.02
2022-08-09T09:54:34.989Z,23.09
2022-08-09T09:55:35.036Z,23.10
2022-08-09T09:56:34.991Z,23.18
2022-08-09T09:58:02.951Z,23.20
2022-08-09T09:58:34.992Z,23.20
2022-08-09T09:59:35.558Z,23.23
2022-08-09T10:00:35.006Z,23.15
2022-08-09T10:01:38.145Z,23.12
2022-08-09T10:02:35.172Z,23.20
2022-08-09T10:03:35.070Z,23.20
2022-08-09T10:04:35.056Z,23.28
2022-08-09T10:06:04.074Z,23.28
2022-08-09T10:06:35.033Z,23.36
2022-08-09T10:07:35.065Z,23.46
2022-08-09T10:08:54.181Z,23.41
2022-08-09T10:09:35.028Z,23.41
2022-08-09T10:10:35.028Z,23.47
2022-08-09T10:12:00.875Z,23.46
2022-08-09T10:12:35.049Z,23.47
2022-08-09T10:13:43.180Z,23.44
2022-08-09T10:14:35.054Z,23.39
2022-08-09T10:16:08.650Z,23.46
2022-08-09T10:16:58.004Z,23.39
2022-08-09T10:17:50.487Z,23.54
2022-08-09T10:18:35.052Z,23.54
2022-08-09T10:19:35.057Z,23.46
2022-08-09T10:20:40.394Z,23.48
2022-08-09T10:21:35.061Z,23.44
2022-08-09T10:22:35.211Z,23.54
2022-08-09T10:23:35.070Z,23.43
2022-08-09T10:24:35.709Z,23.40
2022-08-09T10:26:06.460Z,23.47
2022-08-09T10:26:35.073Z,23.50
2022-08-09T10:27:38.763Z,23.55
2022-08-09T10:28:35.174Z,23.58
2022-08-09T10:30:49.491Z,23.58
2022-08-09T10:32:42.309Z,23.62
2022-08-09T10:34:08.752Z,23.59
2022-08-09T10:34:35.796Z,23.55
2022-08-09T10:35:35.099Z,23.51
2022-08-09T10:36:35.524Z,23.56
2022-08-09T10:37:38.953Z,23.58
2022-08-09T10:38:56.470Z,23.63
2022-08-09T10:39:40.560Z,23.69
2022-08-09T10:40:40.505Z,23.74
2022-08-09T10:41:35.118Z,23.83
2022-08-09T10:42:35.130Z,23.68
2022-08-09T10:43:47.120Z,23.78
2022-08-09T10:44:35.138Z,23.71
2022-08-09T10:45:35.390Z,23.71
2022-08-09T10:46:47.437Z,23.73
2022-08-09T10:48:16.674Z,23.69
2022-08-09T10:48:36.874Z,23.69
2022-08-09T10:49:51.063Z,23.61
2022-08-09T10:50:35.146Z,23.59
2022-08-09T10:51:41.305Z,23.61
2022-08-09T10:52:35.585Z,23.63
2022-08-09T10:53:39.330Z,23.68
2022-08-09T10:54:35.160Z,23.88
2022-08-09T10:55:55.068Z,23.87
2022-08-09T10:56:35.164Z,23.99
2022-08-09T10:57:37.690Z,24.03
2022-08-09T10:58:37.178Z,24.06
2022-08-09T10:59:43.210Z,24.05
2022-08-09T11:00:35.289Z,24.18
2022-08-09T11:03:11.242Z,24.20
2022-08-09T11:03:14.430Z,24.16
2022-08-09T11:03:50.727Z,24.23
2022-08-09T11:04:35.382Z,24.06
2022-08-09T11:05:35.227Z,24.05
2022-08-09T11:06:37.244Z,24.16
2022-08-09T11:07:57.393Z,24.21
2022-08-09T11:08:35.208Z,24.20
2022-08-09T11:09:37.201Z,24.21
2022-08-09T11:10:35.205Z,24.24
2022-08-09T11:11:35.206Z,24.17
2022-08-09T11:12:35.599Z,24.16
2022-08-09T11:13:50.156Z,24.17
2022-08-09T11:14:35.221Z,24.16
2022-08-09T11:15:50.623Z,24.20
2022-08-09T11:16:36.944Z,24.17
2022-08-09T11:17:35.229Z,24.14
2022-08-09T11:18:35.228Z,24.18
2022-08-09T11:20:07.999Z,24.18
2022-08-09T11:20:35.238Z,24.17
2022-08-09T11:21:35.241Z,24.20
2022-08-09T11:22:35.390Z,24.14
2022-08-09T11:23:35.243Z,24.17
2022-08-09T11:24:35.247Z,24.16
2022-08-09T11:25:44.953Z,24.02
2022-08-09T11:26:35.252Z,24.06
2022-08-09T11:28:05.637Z,24.18
2022-08-09T11:28:54.107Z,24.10
2022-08-09T11:30:06.118Z,24.16
2022-08-09T11:30:35.757Z,24.21
2022-08-09T11:31:36.818Z,24.20
2022-08-09T11:32:35.274Z,24.30
2022-08-09T11:33:35.274Z,24.35
2022-08-09T11:34:35.275Z,24.38
2022-08-09T11:35:50.421Z,24.38
2022-08-09T11:36:36.841Z,24.40
2022-08-09T11:37:40.829Z,24.42
2022-08-09T11:38:35.290Z,24.40
2022-08-09T11:39:38.128Z,24.38
2022-08-09T11:40:35.297Z,24.48
2022-08-09T11:41:38.512Z,24.53
2022-08-09T11:42:35.300Z,24.54
2022-08-09T11:43:35.305Z,24.54
2022-08-09T11:44:35.310Z,24.58
2022-08-09T11:45:37.808Z,24.57
2022-08-09T11:46:35.314Z,24.55
2022-08-09T11:47:35.315Z,24.55
2022-08-09T11:48:35.931Z,24.55
2022-08-09T11:49:42.913Z,24.63
2022-08-09T11:50:55.202Z,24.76
2022-08-09T11:52:56.629Z,24.78
2022-08-09T11:53:03.552Z,24.86
2022-08-09T11:53:55.226Z,24.86
2022-08-09T11:54:35.571Z,24.91
2022-08-09T11:55:53.794Z,24.92
2022-08-09T11:56:47.806Z,24.88
2022-08-09T11:57:59.673Z,24.81
2022-08-09T11:58:35.365Z,24.80
2022-08-09T11:59:35.352Z,24.70
2022-08-09T12:00:35.356Z,24.81
2022-08-09T12:02:17.863Z,24.66
2022-08-09T12:02:39.828Z,24.70
2022-08-09T12:03:56.925Z,24.73
2022-08-09T12:04:38.069Z,24.76
2022-08-09T12:05:39.584Z,24.85
2022-08-09T12:06:35.514Z,24.91
2022-08-09T12:07:42.259Z,25.01
2022-08-09T12:08:35.381Z,24.95
2022-08-09T12:09:35.390Z,24.91
2022-08-09T12:10:39.841Z,25.03
2022-08-09T12:11:44.540Z,25.07
2022-08-09T12:12:35.394Z,25.06
2022-08-09T12:14:09.855Z,25.06
2022-08-09T12:14:36.861Z,25.13
2022-08-09T12:15:49.954Z,25.16
2022-08-09T12:16:38.109Z,25.21
2022-08-09T12:17:44.341Z,25.18
2022-08-09T12:18:35.414Z,25.17
2022-08-09T12:19:35.413Z,25.11
2022-08-09T12:20:35.419Z,25.14
2022-08-09T12:21:38.565Z,25.11
2022-08-09T12:22:35.739Z,25.04
2022-08-09T12:23:58.005Z,25.01
2022-08-09T12:24:35.433Z,25.01
2022-08-09T12:25:38.014Z,24.95
2022-08-09T12:26:35.438Z,25.03
2022-08-09T12:29:13.570Z,25.04
2022-08-09T12:29:15.549Z,25.04
2022-08-09T12:29:52.509Z,24.93
2022-08-09T12:30:38.996Z,25.04
2022-08-09T12:32:01.667Z,25.16
2022-08-09T12:32:35.541Z,25.16
2022-08-09T12:33:59.076Z,25.22
2022-08-09T12:34:35.465Z,25.11
2022-08-09T12:35:40.970Z,25.13
2022-08-09T12:36:36.104Z,25.06
2022-08-09T12:37:49.616Z,24.98
2022-08-09T12:38:37.731Z,24.98
2022-08-09T12:39:37.648Z,24.95
2022-08-09T12:40:35.484Z,24.98
2022-08-09T12:41:39.974Z,25.08
2022-08-09T12:42:35.801Z,25.33
2022-08-09T12:44:06.290Z,25.40
2022-08-09T12:44:37.231Z,25.35
2022-08-09T12:45:38.322Z,25.36
2022-08-09T12:46:36.064Z,25.38
2022-08-09T12:47:41.309Z,25.36
2022-08-09T12:48:37.362Z,25.33
2022-08-09T12:49:35.512Z,25.22
2022-08-09T12:50:35.519Z,25.31
2022-08-09T12:52:00.866Z,25.40
2022-08-09T12:53:02.580Z,25.36
2022-08-09T12:53:38.791Z,25.32
2022-08-09T12:54:35.531Z,25.32